Greenlawn, NY (11740)

2:36 AM EDT on September 17, 2014 (GMT -0400)
Elwood Middle School | Change Station
CLOSE
Current Station
Personal Weather Station
Location: Greenlawn, NY
Elevation: 230 ft
Nearby Weather Stations

Elev 230 ft 40.86 °N, 73.34 °W | Updated 1 minute ago

Partly Cloudy
Partly Cloudy
57.5 °F
Feels Like 57.5 °F
N
0.0
Wind Variable Wind from NE

Today
High -- | Low -- °F
--% Chance of Precip.
Yesterday
High -- | Low -- °F
Precip. -- in
6:35 AM 6:59 PM
Last Quarter, 38% visible
Pressure 30.02 in
Visibility 10.0 miles
Clouds Clear
Dew Point 58 °F
Humidity 100%
Rainfall 0.00 in
Snow Depth Not available.
UV 0 out of 12
Pollen 1.60 out of 12
Ozone Good
Flu Activity Not available.
METAR KFRG 170553Z AUTO 00000KT 10SM CLR 14/12 A3002 RMK AO2 SLP166 T01390117 10178 20133 53003 TSNO

More Conditions Fewer Conditions

Pressure 30.02 in
Visibility 10.0 miles
Clouds Clear
Dew Point 58 °F
Humidity 100%
Rainfall 0.00 in
Snow Depth Not available.
UV 0 out of 12
Pollen 1.60 out of 12
Ozone Good
Flu Activity Not available.
METAR KFRG 170553Z AUTO 00000KT 10SM CLR 14/12 A3002 RMK AO2 SLP166 T01390117 10178 20133 53003 TSNO

More Conditions Fewer Conditions

10-Day Weather Forecast

Almanac

Astronomy

Sep. 17, 2014 Rise Set
Actual Time 6:35 AM EDT 6:59 PM EDT
Civil Twilight 6:08 AM EDT 7:26 PM EDT
Nautical Twilight 5:36 AM EDT 7:58 PM EDT
Astronomical Twilight 5:02 AM EDT 8:31 PM EDT
Moon 12:31 AM EDT 3:08 PM EDT
Length of Visible Light 13h 18m
Length of Day
12h 23m
Tomorrow will be 2m 41s shorter.
Last Quarter, 38% of the Moon is Illuminated
Today
Last Quarter
Sep 24
New
Oct 1
First Quarter
Oct 8
Full
Oct 15
Last Quarter

Today's Extremes

State Highs State Lows

Community

WunderPhotos

Upload Photos

1,753,970 photos uploaded!

Nearby

Air Quality

  Air Quality AQ Index Pollutant
Yesterday Good
OZONE
Current Good
OZONE
Wednesday Good
OZONE
Wednesday Good
PM2.5

Snow Depth

Station Depth Elevation
No new snow has been reported.

Earthquake Activity

City Distance Mag. Time & Date
No recent earthquake activity has been reported nearby.
Minimum magnitude displayed is 2.5.

Coastal Water Temperatures

Place Temperature
Bridgeport, CT 69.1 °F

Nearby Weather Stations